createdAt,value
2023-05-23T00:03:44.017Z,10.40
2023-05-23T00:08:46.928Z,11.70
2023-05-23T00:13:51.662Z,11.23
2023-05-23T00:18:58.088Z,10.27
2023-05-23T00:24:03.008Z,10.08
2023-05-23T00:29:05.822Z,10.01
2023-05-23T00:34:08.632Z,10.05
2023-05-23T00:39:20.330Z,10.05
2023-05-23T00:44:24.216Z,9.76
2023-05-23T00:49:28.556Z,9.66
2023-05-23T00:54:31.995Z,9.71
2023-05-23T00:59:37.628Z,9.77
2023-05-23T01:04:40.836Z,9.69
2023-05-23T01:09:43.736Z,9.79
2023-05-23T01:14:56.958Z,10.04
2023-05-23T01:20:05.309Z,10.35
2023-05-23T01:25:42.795Z,10.56
2023-05-23T01:30:46.976Z,10.80
2023-05-23T01:35:50.367Z,11.10
2023-05-23T01:40:54.522Z,11.36
2023-05-23T01:45:58.423Z,11.59
2023-05-23T01:51:03.010Z,11.82
2023-05-23T01:56:05.986Z,12.03
2023-05-23T02:01:10.275Z,12.13
2023-05-23T02:06:13.481Z,12.10
2023-05-23T02:11:16.439Z,12.27
2023-05-23T02:16:19.467Z,12.48
2023-05-23T02:21:24.275Z,12.47
2023-05-23T02:26:28.001Z,12.61
2023-05-23T02:31:31.996Z,12.84
2023-05-23T02:36:37.482Z,12.95
2023-05-23T02:41:40.590Z,13.19
2023-05-23T02:46:43.641Z,13.49
2023-05-23T02:51:46.892Z,13.80
2023-05-23T02:56:52.708Z,14.03
2023-05-23T03:01:55.984Z,14.34
2023-05-23T03:07:00.067Z,14.59
2023-05-23T03:12:03.072Z,14.72
2023-05-23T03:17:06.239Z,14.89
2023-05-23T03:22:09.141Z,14.90
2023-05-23T03:27:12.121Z,15.00
2023-05-23T03:32:15.346Z,15.13
2023-05-23T03:37:18.396Z,15.44
2023-05-23T03:42:21.361Z,15.66
2023-05-23T03:47:27.688Z,15.79
2023-05-23T03:52:33.103Z,15.75
2023-05-23T03:57:36.656Z,15.87
2023-05-23T04:02:42.428Z,15.76
2023-05-23T04:07:46.728Z,15.83
2023-05-23T04:12:52.416Z,15.80
2023-05-23T04:17:56.758Z,15.96
2023-05-23T04:23:00.748Z,15.82
2023-05-23T04:28:06.895Z,15.82
2023-05-23T04:33:10.599Z,15.84
2023-05-23T04:38:13.989Z,16.02
2023-05-23T04:43:17.372Z,16.14
2023-05-23T04:48:31.835Z,16.30
2023-05-23T04:53:37.416Z,16.50
2023-05-23T04:58:44.779Z,16.54
2023-05-23T05:03:49.794Z,16.52
2023-05-23T05:08:52.928Z,16.46
2023-05-23T05:13:57.246Z,16.42
2023-05-23T05:19:00.495Z,16.47
2023-05-23T05:24:03.566Z,16.61
2023-05-23T05:29:06.835Z,16.81
2023-05-23T05:34:12.189Z,16.82
2023-05-23T05:39:15.966Z,16.81
2023-05-23T05:44:19.036Z,16.94
2023-05-23T05:49:23.027Z,17.03
2023-05-23T05:54:26.174Z,17.04
2023-05-23T05:59:31.847Z,17.04
2023-05-23T06:04:35.687Z,17.00
2023-05-23T06:09:39.666Z,17.20
2023-05-23T06:14:43.776Z,17.41
2023-05-23T06:19:47.011Z,17.38
2023-05-23T06:24:51.437Z,17.44
2023-05-23T06:29:55.637Z,17.36
2023-05-23T06:34:58.663Z,17.36
2023-05-23T06:40:02.731Z,17.54
2023-05-23T06:45:08.205Z,17.68
2023-05-23T06:50:11.756Z,17.80
2023-05-23T06:55:18.766Z,17.91
2023-05-23T07:00:23.757Z,17.89
2023-05-23T07:05:41.702Z,17.98
2023-05-23T07:10:46.467Z,18.19
2023-05-23T07:16:01.811Z,18.12
2023-05-23T07:21:06.966Z,18.03
2023-05-23T07:26:10.251Z,18.27
2023-05-23T07:31:22.219Z,18.19
2023-05-23T07:36:28.133Z,18.17
2023-05-23T07:41:31.424Z,18.15
2023-05-23T07:46:34.480Z,18.17
2023-05-23T07:51:38.124Z,18.26
2023-05-23T07:56:43.174Z,18.22
2023-05-23T08:01:46.699Z,18.21
2023-05-23T08:12:06.389Z,18.41
2023-05-23T08:17:11.906Z,18.67
2023-05-23T08:22:15.169Z,18.58
2023-05-23T08:27:18.148Z,18.57
2023-05-23T08:32:24.325Z,18.63
2023-05-23T08:37:27.710Z,18.59
2023-05-23T08:42:31.042Z,18.67
2023-05-23T08:47:35.012Z,18.81
2023-05-23T08:52:45.510Z,18.97
2023-05-23T08:57:48.766Z,19.05
2023-05-23T09:03:07.772Z,19.14
2023-05-23T09:08:26.655Z,19.32
2023-05-23T09:13:34.908Z,19.23
2023-05-23T09:18:42.925Z,19.39
2023-05-23T09:23:49.688Z,19.36
2023-05-23T09:28:58.134Z,19.38
2023-05-23T09:34:01.624Z,19.38
2023-05-23T09:39:06.116Z,19.44
2023-05-23T09:44:10.032Z,19.42
2023-05-23T09:49:19.342Z,19.43
2023-05-23T09:54:23.428Z,19.40
2023-05-23T09:59:29.405Z,19.40
2023-05-23T10:04:35.100Z,19.52
2023-05-23T10:09:40.470Z,19.37
2023-05-23T10:14:46.078Z,19.24
2023-05-23T10:20:03.755Z,19.24
2023-05-23T10:25:10.995Z,19.28
2023-05-23T10:30:14.394Z,19.38
2023-05-23T10:35:43.930Z,19.33
2023-05-23T10:41:14.586Z,19.40
2023-05-23T10:46:22.099Z,19.52
2023-05-23T10:51:25.420Z,19.44
2023-05-23T10:56:32.353Z,19.44
2023-05-23T11:01:40.074Z,19.43
2023-05-23T11:06:45.117Z,19.35
2023-05-23T11:12:08.555Z,19.36
2023-05-23T11:17:14.374Z,19.37
2023-05-23T11:22:18.383Z,19.41
2023-05-23T11:27:28.821Z,19.41
2023-05-23T11:32:32.342Z,19.24
2023-05-23T11:37:35.977Z,19.15
2023-05-23T11:42:45.069Z,19.18
2023-05-23T11:47:47.995Z,19.15
2023-05-23T11:52:52.328Z,19.02
2023-05-23T11:57:57.037Z,18.88
2023-05-23T12:03:07.688Z,18.73
2023-05-23T12:08:13.196Z,18.90
2023-05-23T12:13:16.193Z,18.86
2023-05-23T12:18:20.717Z,19.05
2023-05-23T12:23:24.657Z,19.52
2023-05-23T12:28:38.419Z,20.43
2023-05-23T12:33:45.638Z,19.90
2023-05-23T12:38:48.753Z,19.39
2023-05-23T12:43:53.211Z,18.97
2023-05-23T12:48:56.450Z,18.73
2023-05-23T12:53:59.596Z,19.32
2023-05-23T12:59:04.000Z,21.02
2023-05-23T13:04:07.069Z,22.20
2023-05-23T13:09:10.690Z,22.55
2023-05-23T13:14:14.494Z,22.70
2023-05-23T13:19:17.870Z,22.92
2023-05-23T13:24:21.239Z,22.88
2023-05-23T13:29:24.315Z,22.85
2023-05-23T13:34:28.838Z,22.61
2023-05-23T13:39:32.098Z,22.50
2023-05-23T13:44:35.076Z,22.33
2023-05-23T13:49:38.080Z,22.06
2023-05-23T13:54:42.066Z,21.80
2023-05-23T13:59:45.073Z,21.85
2023-05-23T14:04:49.504Z,21.97
2023-05-23T14:09:52.471Z,21.64
2023-05-23T14:14:55.522Z,20.43
2023-05-23T14:19:59.327Z,18.74
2023-05-23T14:25:02.294Z,17.41
2023-05-23T14:30:07.252Z,16.59
2023-05-23T14:35:11.806Z,16.00
2023-05-23T14:40:16.643Z,15.44
2023-05-23T14:45:20.109Z,15.03
2023-05-23T14:50:23.333Z,14.69
2023-05-23T14:55:26.654Z,14.37
2023-05-23T15:00:29.574Z,14.13
2023-05-23T15:05:32.675Z,13.98
2023-05-23T15:10:36.001Z,13.82
2023-05-23T15:15:39.307Z,13.67
2023-05-23T15:20:43.044Z,13.59
2023-05-23T15:25:49.982Z,13.55
2023-05-23T15:30:54.112Z,13.40
2023-05-23T15:35:59.266Z,13.29
2023-05-23T15:41:02.920Z,13.26
2023-05-23T15:46:06.040Z,13.13
2023-05-23T15:51:09.197Z,13.14
2023-05-23T15:56:12.218Z,13.06
2023-05-23T16:01:15.339Z,12.95
2023-05-23T16:06:19.673Z,13.00
2023-05-23T16:11:23.290Z,12.89
2023-05-23T16:16:26.300Z,12.90
2023-05-23T16:21:29.369Z,12.82
2023-05-23T16:26:32.336Z,12.81
2023-05-23T16:31:36.081Z,12.63
2023-05-23T16:36:39.077Z,12.52
2023-05-23T16:41:42.161Z,12.64
2023-05-23T16:46:45.384Z,12.47
2023-05-23T16:51:48.914Z,12.40
2023-05-23T16:56:51.820Z,12.27
2023-05-23T17:01:54.878Z,12.24
2023-05-23T17:06:57.953Z,12.19
2023-05-23T17:12:00.969Z,12.04
2023-05-23T17:17:05.732Z,11.95
2023-05-23T17:22:08.760Z,11.83
2023-05-23T17:27:11.633Z,11.85
2023-05-23T17:32:14.736Z,11.75
2023-05-23T17:37:17.752Z,11.70
2023-05-23T17:42:21.088Z,11.59
2023-05-23T17:47:24.251Z,11.42
2023-05-23T17:52:29.345Z,11.30
2023-05-23T17:57:32.424Z,11.21
2023-05-23T18:02:35.423Z,11.02
2023-05-23T18:07:38.603Z,10.93
2023-05-23T18:12:41.605Z,10.54
2023-05-23T18:17:44.766Z,10.32
2023-05-23T18:22:53.150Z,10.39
2023-05-23T18:27:58.781Z,10.45
2023-05-23T18:33:01.809Z,10.37
2023-05-23T18:38:04.870Z,10.41
2023-05-23T18:43:07.782Z,10.38
2023-05-23T18:48:11.082Z,10.13
2023-05-23T18:53:14.325Z,10.33
2023-05-23T18:58:17.359Z,10.62
2023-05-23T19:03:20.689Z,10.60
2023-05-23T19:08:23.869Z,10.41
2023-05-23T19:13:27.769Z,10.14
2023-05-23T19:18:30.904Z,10.20
2023-05-23T19:23:34.562Z,10.23
2023-05-23T19:28:37.532Z,10.02
2023-05-23T19:33:40.657Z,9.67
2023-05-23T19:38:43.632Z,9.38
2023-05-23T19:43:46.604Z,9.15
2023-05-23T19:48:49.983Z,8.96
2023-05-23T19:53:54.953Z,8.88
2023-05-23T19:58:58.092Z,8.90
2023-05-23T20:04:01.331Z,9.01
2023-05-23T20:09:04.518Z,9.05
2023-05-23T20:14:07.594Z,9.04
2023-05-23T20:19:10.766Z,9.03
2023-05-23T20:24:15.407Z,8.97
2023-05-23T20:29:18.451Z,8.89
2023-05-23T20:34:21.412Z,8.89
2023-05-23T20:39:24.645Z,8.87
2023-05-23T20:44:28.729Z,8.84
2023-05-23T20:49:31.744Z,8.79
2023-05-23T20:54:35.838Z,8.87
2023-05-23T20:59:38.886Z,9.12
2023-05-23T21:04:41.772Z,9.23
2023-05-23T21:09:44.831Z,9.23
2023-05-23T21:14:47.733Z,9.07
2023-05-23T21:19:50.750Z,8.97
2023-05-23T21:24:53.736Z,8.98
2023-05-23T21:29:57.109Z,9.00
2023-05-23T21:35:00.048Z,9.00
2023-05-23T21:40:03.252Z,8.96
2023-05-23T21:45:08.374Z,8.83
2023-05-23T21:50:11.792Z,8.77
2023-05-23T21:55:14.765Z,8.76
2023-05-23T22:00:19.564Z,8.60
2023-05-23T22:05:22.685Z,8.69
2023-05-23T22:10:25.598Z,8.66
2023-05-23T22:15:28.615Z,8.56
2023-05-23T22:20:31.579Z,8.55
2023-05-23T22:25:35.571Z,8.64
2023-05-23T22:30:38.733Z,8.69
2023-05-23T22:35:42.223Z,8.77
2023-05-23T22:40:45.156Z,8.80
2023-05-23T22:45:50.374Z,8.77
2023-05-23T22:50:57.479Z,8.72
2023-05-23T22:56:00.362Z,8.71
2023-05-23T23:01:03.334Z,8.69
2023-05-23T23:06:06.782Z,8.71
2023-05-23T23:11:09.719Z,8.71
2023-05-23T23:16:13.594Z,8.76
2023-05-23T23:21:16.564Z,8.87
2023-05-23T23:26:19.601Z,8.92
2023-05-23T23:31:22.626Z,8.96
2023-05-23T23:36:25.634Z,9.01
2023-05-23T23:41:28.639Z,9.08
2023-05-23T23:46:31.658Z,9.15
2023-05-23T23:51:34.646Z,9.23
2023-05-23T23:56:37.689Z,9.50
